sensor_id;sensor_type;location;lat;lon;timestamp;P1;durP1;ratioP1;P2;durP2;ratioP2
28007;SDS011;15333;50.010;20.020;2023-04-08T00:01:39;119.15;;;54.70;;
28007;SDS011;15333;50.010;20.020;2023-04-08T00:04:40;114.50;;;52.10;;
28007;SDS011;15333;50.010;20.020;2023-04-08T00:07:41;117.53;;;54.38;;
28007;SDS011;15333;50.010;20.020;2023-04-08T00:10:42;116.00;;;56.45;;
28007;SDS011;15333;50.010;20.020;2023-04-08T00:13:43;117.80;;;59.28;;
28007;SDS011;15333;50.010;20.020;2023-04-08T00:16:44;120.43;;;54.53;;
28007;SDS011;15333;50.010;20.020;2023-04-08T00:19:45;118.13;;;53.60;;
28007;SDS011;15333;50.010;20.020;2023-04-08T00:22:46;110.63;;;55.50;;
28007;SDS011;15333;50.010;20.020;2023-04-08T00:25:47;110.47;;;53.20;;
28007;SDS011;15333;50.010;20.020;2023-04-08T00:28:48;124.72;;;58.20;;
28007;SDS011;15333;50.010;20.020;2023-04-08T00:31:49;119.15;;;57.08;;
28007;SDS011;15333;50.010;20.020;2023-04-08T00:34:50;121.07;;;57.65;;
28007;SDS011;15333;50.010;20.020;2023-04-08T00:37:51;113.57;;;55.03;;
28007;SDS011;15333;50.010;20.020;2023-04-08T00:40:53;118.95;;;56.63;;
28007;SDS011;15333;50.010;20.020;2023-04-08T00:43:53;126.43;;;59.88;;
28007;SDS011;15333;50.010;20.020;2023-04-08T00:46:55;129.63;;;63.13;;
28007;SDS011;15333;50.010;20.020;2023-04-08T00:49:56;138.02;;;64.32;;
28007;SDS011;15333;50.010;20.020;2023-04-08T00:52:57;136.32;;;59.83;;
28007;SDS011;15333;50.010;20.020;2023-04-08T00:55:57;139.57;;;57.67;;
28007;SDS011;15333;50.010;20.020;2023-04-08T00:59:00;115.78;;;50.40;;
28007;SDS011;15333;50.010;20.020;2023-04-08T01:02:25;141.73;;;61.17;;
28007;SDS011;15333;50.010;20.020;2023-04-08T01:05:44;143.50;;;63.20;;
28007;SDS011;15333;50.010;20.020;2023-04-08T01:08:56;143.38;;;63.35;;
28007;SDS011;15333;50.010;20.020;2023-04-08T01:12:01;141.38;;;63.00;;
28007;SDS011;15333;50.010;20.020;2023-04-08T01:15:05;148.43;;;67.50;;
28007;SDS011;15333;50.010;20.020;2023-04-08T01:18:09;159.68;;;68.38;;
28007;SDS011;15333;50.010;20.020;2023-04-08T01:21:14;153.70;;;61.00;;
28007;SDS011;15333;50.010;20.020;2023-04-08T01:24:20;191.95;;;71.13;;
28007;SDS011;15333;50.010;20.020;2023-04-08T01:27:28;194.32;;;72.28;;
28007;SDS011;15333;50.010;20.020;2023-04-08T01:30:31;199.35;;;66.68;;
28007;SDS011;15333;50.010;20.020;2023-04-08T01:33:35;234.93;;;69.00;;
28007;SDS011;15333;50.010;20.020;2023-04-08T01:36:36;216.63;;;67.43;;
28007;SDS011;15333;50.010;20.020;2023-04-08T01:39:39;184.07;;;55.78;;
28007;SDS011;15333;50.010;20.020;2023-04-08T01:42:41;160.40;;;56.22;;
28007;SDS011;15333;50.010;20.020;2023-04-08T01:45:46;204.63;;;63.17;;
28007;SDS011;15333;50.010;20.020;2023-04-08T01:48:49;342.83;;;75.53;;
28007;SDS011;15333;50.010;20.020;2023-04-08T01:51:50;190.65;;;61.70;;
28007;SDS011;15333;50.010;20.020;2023-04-08T01:54:53;183.48;;;60.92;;
28007;SDS011;15333;50.010;20.020;2023-04-08T01:57:54;144.18;;;60.83;;
28007;SDS011;15333;50.010;20.020;2023-04-08T02:00:58;150.18;;;61.40;;
28007;SDS011;15333;50.010;20.020;2023-04-08T02:03:59;170.15;;;59.25;;
28007;SDS011;15333;50.010;20.020;2023-04-08T02:07:02;168.85;;;61.13;;
28007;SDS011;15333;50.010;20.020;2023-04-08T02:10:04;160.20;;;61.08;;
28007;SDS011;15333;50.010;20.020;2023-04-08T02:13:06;137.88;;;58.05;;
28007;SDS011;15333;50.010;20.020;2023-04-08T02:16:15;148.52;;;54.92;;
28007;SDS011;15333;50.010;20.020;2023-04-08T02:19:23;132.30;;;53.75;;
28007;SDS011;15333;50.010;20.020;2023-04-08T02:22:30;167.07;;;56.03;;
28007;SDS011;15333;50.010;20.020;2023-04-08T02:25:34;137.13;;;55.60;;
28007;SDS011;15333;50.010;20.020;2023-04-08T02:28:38;216.07;;;61.90;;
28007;SDS011;15333;50.010;20.020;2023-04-08T02:31:41;149.18;;;52.63;;
28007;SDS011;15333;50.010;20.020;2023-04-08T02:34:42;149.52;;;53.60;;
28007;SDS011;15333;50.010;20.020;2023-04-08T02:37:45;174.50;;;51.00;;
28007;SDS011;15333;50.010;20.020;2023-04-08T02:40:51;215.00;;;60.10;;
28007;SDS011;15333;50.010;20.020;2023-04-08T02:43:52;191.10;;;56.55;;
28007;SDS011;15333;50.010;20.020;2023-04-08T02:46:54;200.55;;;60.80;;
28007;SDS011;15333;50.010;20.020;2023-04-08T02:49:55;221.68;;;62.65;;
28007;SDS011;15333;50.010;20.020;2023-04-08T02:52:56;629.30;;;85.60;;
28007;SDS011;15333;50.010;20.020;2023-04-08T02:55:57;363.83;;;70.05;;
28007;SDS011;15333;50.010;20.020;2023-04-08T02:58:58;266.70;;;65.70;;
28007;SDS011;15333;50.010;20.020;2023-04-08T03:01:59;233.95;;;65.75;;
28007;SDS011;15333;50.010;20.020;2023-04-08T03:05:00;284.65;;;66.70;;
28007;SDS011;15333;50.010;20.020;2023-04-08T03:08:01;185.43;;;57.78;;
28007;SDS011;15333;50.010;20.020;2023-04-08T03:11:02;227.77;;;62.53;;
28007;SDS011;15333;50.010;20.020;2023-04-08T03:14:03;170.90;;;57.35;;
28007;SDS011;15333;50.010;20.020;2023-04-08T03:17:04;158.88;;;55.00;;
28007;SDS011;15333;50.010;20.020;2023-04-08T03:20:05;142.80;;;54.50;;
28007;SDS011;15333;50.010;20.020;2023-04-08T03:23:07;139.00;;;55.55;;
28007;SDS011;15333;50.010;20.020;2023-04-08T03:26:08;121.15;;;45.92;;
28007;SDS011;15333;50.010;20.020;2023-04-08T03:29:09;109.90;;;48.22;;
28007;SDS011;15333;50.010;20.020;2023-04-08T03:32:10;114.85;;;49.72;;
28007;SDS011;15333;50.010;20.020;2023-04-08T03:35:10;114.60;;;49.17;;
28007;SDS011;15333;50.010;20.020;2023-04-08T03:38:11;110.15;;;46.63;;
28007;SDS011;15333;50.010;20.020;2023-04-08T03:41:12;107.50;;;46.55;;
28007;SDS011;15333;50.010;20.020;2023-04-08T03:44:13;111.65;;;50.67;;
28007;SDS011;15333;50.010;20.020;2023-04-08T03:47:14;103.05;;;46.55;;
28007;SDS011;15333;50.010;20.020;2023-04-08T03:50:15;98.45;;;45.80;;
28007;SDS011;15333;50.010;20.020;2023-04-08T03:53:16;108.82;;;48.28;;
28007;SDS011;15333;50.010;20.020;2023-04-08T03:56:17;106.43;;;50.22;;
28007;SDS011;15333;50.010;20.020;2023-04-08T03:59:18;100.10;;;46.25;;
28007;SDS011;15333;50.010;20.020;2023-04-08T04:02:19;93.22;;;41.90;;
28007;SDS011;15333;50.010;20.020;2023-04-08T04:05:20;95.43;;;46.92;;
28007;SDS011;15333;50.010;20.020;2023-04-08T04:08:21;94.63;;;44.42;;
28007;SDS011;15333;50.010;20.020;2023-04-08T04:11:22;97.97;;;45.15;;
28007;SDS011;15333;50.010;20.020;2023-04-08T04:14:23;100.93;;;44.45;;
28007;SDS011;15333;50.010;20.020;2023-04-08T04:17:24;94.35;;;43.55;;
28007;SDS011;15333;50.010;20.020;2023-04-08T04:20:25;85.32;;;40.65;;
28007;SDS011;15333;50.010;20.020;2023-04-08T04:23:28;86.45;;;40.47;;
28007;SDS011;15333;50.010;20.020;2023-04-08T04:26:29;85.22;;;37.90;;
28007;SDS011;15333;50.010;20.020;2023-04-08T04:29:30;82.40;;;38.67;;
28007;SDS011;15333;50.010;20.020;2023-04-08T04:32:31;85.05;;;38.10;;
28007;SDS011;15333;50.010;20.020;2023-04-08T04:35:32;83.18;;;38.25;;
28007;SDS011;15333;50.010;20.020;2023-04-08T04:38:34;86.75;;;39.58;;
28007;SDS011;15333;50.010;20.020;2023-04-08T04:41:34;84.43;;;39.97;;
28007;SDS011;15333;50.010;20.020;2023-04-08T04:44:40;85.72;;;40.50;;
28007;SDS011;15333;50.010;20.020;2023-04-08T04:47:40;76.80;;;38.00;;
28007;SDS011;15333;50.010;20.020;2023-04-08T04:50:41;75.25;;;38.03;;
28007;SDS011;15333;50.010;20.020;2023-04-08T04:53:42;66.60;;;34.17;;
28007;SDS011;15333;50.010;20.020;2023-04-08T04:56:43;71.20;;;34.92;;
28007;SDS011;15333;50.010;20.020;2023-04-08T04:59:44;74.38;;;38.17;;
28007;SDS011;15333;50.010;20.020;2023-04-08T05:02:45;70.40;;;35.35;;
28007;SDS011;15333;50.010;20.020;2023-04-08T05:05:49;72.90;;;37.97;;
28007;SDS011;15333;50.010;20.020;2023-04-08T05:08:51;71.72;;;35.85;;
28007;SDS011;15333;50.010;20.020;2023-04-08T05:11:52;60.30;;;33.15;;
28007;SDS011;15333;50.010;20.020;2023-04-08T05:14:53;72.63;;;37.63;;
28007;SDS011;15333;50.010;20.020;2023-04-08T05:17:54;61.47;;;31.35;;
28007;SDS011;15333;50.010;20.020;2023-04-08T05:20:55;55.53;;;29.33;;
28007;SDS011;15333;50.010;20.020;2023-04-08T05:23:55;57.03;;;31.02;;
28007;SDS011;15333;50.010;20.020;2023-04-08T05:26:56;51.65;;;28.10;;
28007;SDS011;15333;50.010;20.020;2023-04-08T05:29:57;58.53;;;32.55;;
28007;SDS011;15333;50.010;20.020;2023-04-08T05:32:58;52.95;;;29.55;;
28007;SDS011;15333;50.010;20.020;2023-04-08T05:35:59;52.40;;;29.52;;
28007;SDS011;15333;50.010;20.020;2023-04-08T05:39:00;49.70;;;29.40;;
28007;SDS011;15333;50.010;20.020;2023-04-08T05:42:01;51.95;;;28.40;;
28007;SDS011;15333;50.010;20.020;2023-04-08T05:45:02;45.08;;;27.17;;
28007;SDS011;15333;50.010;20.020;2023-04-08T05:48:03;46.22;;;25.67;;
28007;SDS011;15333;50.010;20.020;2023-04-08T05:51:04;44.15;;;25.13;;
28007;SDS011;15333;50.010;20.020;2023-04-08T05:54:05;45.72;;;26.60;;
28007;SDS011;15333;50.010;20.020;2023-04-08T05:57:06;43.17;;;25.75;;
28007;SDS011;15333;50.010;20.020;2023-04-08T06:00:08;45.97;;;25.00;;
28007;SDS011;15333;50.010;20.020;2023-04-08T06:03:11;43.55;;;25.88;;
28007;SDS011;15333;50.010;20.020;2023-04-08T06:06:11;46.13;;;26.17;;
28007;SDS011;15333;50.010;20.020;2023-04-08T06:09:12;50.60;;;26.00;;
28007;SDS011;15333;50.010;20.020;2023-04-08T06:12:13;48.50;;;27.80;;
28007;SDS011;15333;50.010;20.020;2023-04-08T06:15:14;46.72;;;27.40;;
28007;SDS011;15333;50.010;20.020;2023-04-08T06:18:16;38.40;;;23.63;;
28007;SDS011;15333;50.010;20.020;2023-04-08T06:21:17;45.17;;;26.85;;
28007;SDS011;15333;50.010;20.020;2023-04-08T06:24:18;50.40;;;28.83;;
28007;SDS011;15333;50.010;20.020;2023-04-08T06:27:19;45.08;;;25.27;;
28007;SDS011;15333;50.010;20.020;2023-04-08T06:30:20;44.58;;;25.50;;
28007;SDS011;15333;50.010;20.020;2023-04-08T06:33:21;36.80;;;22.45;;
28007;SDS011;15333;50.010;20.020;2023-04-08T06:36:22;40.35;;;24.23;;
28007;SDS011;15333;50.010;20.020;2023-04-08T06:39:23;37.35;;;23.13;;
28007;SDS011;15333;50.010;20.020;2023-04-08T06:42:24;38.92;;;24.13;;
28007;SDS011;15333;50.010;20.020;2023-04-08T06:45:40;35.00;;;21.23;;
28007;SDS011;15333;50.010;20.020;2023-04-08T06:48:42;38.42;;;22.08;;
28007;SDS011;15333;50.010;20.020;2023-04-08T06:51:43;37.10;;;22.90;;
28007;SDS011;15333;50.010;20.020;2023-04-08T06:54:43;38.70;;;21.20;;
28007;SDS011;15333;50.010;20.020;2023-04-08T06:57:44;32.88;;;20.40;;
28007;SDS011;15333;50.010;20.020;2023-04-08T07:00:45;35.70;;;21.67;;
28007;SDS011;15333;50.010;20.020;2023-04-08T07:03:47;32.35;;;19.35;;
28007;SDS011;15333;50.010;20.020;2023-04-08T07:06:48;28.98;;;18.63;;
28007;SDS011;15333;50.010;20.020;2023-04-08T07:09:50;33.58;;;20.35;;
28007;SDS011;15333;50.010;20.020;2023-04-08T07:12:51;33.97;;;19.40;;
28007;SDS011;15333;50.010;20.020;2023-04-08T07:15:52;32.83;;;21.13;;
28007;SDS011;15333;50.010;20.020;2023-04-08T07:18:52;32.85;;;20.10;;
28007;SDS011;15333;50.010;20.020;2023-04-08T07:21:53;31.38;;;20.13;;
28007;SDS011;15333;50.010;20.020;2023-04-08T07:24:54;33.33;;;20.40;;
28007;SDS011;15333;50.010;20.020;2023-04-08T07:27:55;28.65;;;17.83;;
28007;SDS011;15333;50.010;20.020;2023-04-08T07:31:00;28.35;;;18.10;;
28007;SDS011;15333;50.010;20.020;2023-04-08T07:34:11;25.58;;;15.05;;
28007;SDS011;15333;50.010;20.020;2023-04-08T07:37:12;27.35;;;17.85;;
28007;SDS011;15333;50.010;20.020;2023-04-08T07:40:13;28.95;;;17.73;;
28007;SDS011;15333;50.010;20.020;2023-04-08T07:43:14;24.38;;;15.82;;
28007;SDS011;15333;50.010;20.020;2023-04-08T07:46:14;24.73;;;15.52;;
28007;SDS011;15333;50.010;20.020;2023-04-08T07:49:15;24.42;;;15.85;;
28007;SDS011;15333;50.010;20.020;2023-04-08T07:52:17;30.42;;;16.33;;
28007;SDS011;15333;50.010;20.020;2023-04-08T07:55:18;25.80;;;16.60;;
28007;SDS011;15333;50.010;20.020;2023-04-08T07:58:19;24.88;;;16.05;;
28007;SDS011;15333;50.010;20.020;2023-04-08T08:01:20;26.20;;;16.35;;
28007;SDS011;15333;50.010;20.020;2023-04-08T08:04:23;26.00;;;15.85;;
28007;SDS011;15333;50.010;20.020;2023-04-08T08:07:25;27.13;;;17.27;;
28007;SDS011;15333;50.010;20.020;2023-04-08T08:10:26;24.88;;;14.18;;
28007;SDS011;15333;50.010;20.020;2023-04-08T08:13:27;21.92;;;14.55;;
28007;SDS011;15333;50.010;20.020;2023-04-08T08:16:28;26.50;;;15.93;;
28007;SDS011;15333;50.010;20.020;2023-04-08T08:19:29;25.10;;;14.73;;
28007;SDS011;15333;50.010;20.020;2023-04-08T08:22:30;29.10;;;18.27;;
28007;SDS011;15333;50.010;20.020;2023-04-08T08:25:31;29.52;;;18.55;;
28007;SDS011;15333;50.010;20.020;2023-04-08T08:28:32;29.08;;;17.88;;
28007;SDS011;15333;50.010;20.020;2023-04-08T08:31:33;28.13;;;17.00;;
28007;SDS011;15333;50.010;20.020;2023-04-08T08:34:34;30.02;;;19.33;;
28007;SDS011;15333;50.010;20.020;2023-04-08T08:37:35;31.17;;;19.08;;
28007;SDS011;15333;50.010;20.020;2023-04-08T08:40:36;29.08;;;16.05;;
28007;SDS011;15333;50.010;20.020;2023-04-08T08:43:37;31.70;;;16.73;;
28007;SDS011;15333;50.010;20.020;2023-04-08T08:46:44;32.95;;;20.00;;
28007;SDS011;15333;50.010;20.020;2023-04-08T08:49:47;31.40;;;19.38;;
28007;SDS011;15333;50.010;20.020;2023-04-08T08:52:49;35.05;;;20.20;;
28007;SDS011;15333;50.010;20.020;2023-04-08T08:55:50;34.60;;;20.02;;
28007;SDS011;15333;50.010;20.020;2023-04-08T08:58:52;33.60;;;19.00;;
28007;SDS011;15333;50.010;20.020;2023-04-08T09:01:52;35.40;;;18.92;;
28007;SDS011;15333;50.010;20.020;2023-04-08T09:04:57;31.63;;;17.42;;
28007;SDS011;15333;50.010;20.020;2023-04-08T09:07:59;35.00;;;20.48;;
28007;SDS011;15333;50.010;20.020;2023-04-08T09:11:13;31.08;;;20.15;;
28007;SDS011;15333;50.010;20.020;2023-04-08T09:14:16;35.22;;;19.45;;
28007;SDS011;15333;50.010;20.020;2023-04-08T09:17:31;39.92;;;21.52;;
28007;SDS011;15333;50.010;20.020;2023-04-08T09:20:35;40.45;;;23.02;;
28007;SDS011;15333;50.010;20.020;2023-04-08T09:23:46;38.83;;;20.35;;
28007;SDS011;15333;50.010;20.020;2023-04-08T09:26:48;42.13;;;23.02;;
28007;SDS011;15333;50.010;20.020;2023-04-08T09:29:50;39.33;;;22.45;;
28007;SDS011;15333;50.010;20.020;2023-04-08T09:32:51;41.80;;;22.98;;
28007;SDS011;15333;50.010;20.020;2023-04-08T09:35:56;41.97;;;21.35;;
28007;SDS011;15333;50.010;20.020;2023-04-08T09:38:57;48.38;;;25.70;;
28007;SDS011;15333;50.010;20.020;2023-04-08T09:41:58;46.30;;;25.55;;
28007;SDS011;15333;50.010;20.020;2023-04-08T09:45:00;40.33;;;23.25;;
28007;SDS011;15333;50.010;20.020;2023-04-08T09:48:38;37.95;;;20.10;;
28007;SDS011;15333;50.010;20.020;2023-04-08T09:55:03;47.40;;;26.92;;
28007;SDS011;15333;50.010;20.020;2023-04-08T09:58:10;48.95;;;27.50;;
28007;SDS011;15333;50.010;20.020;2023-04-08T10:01:17;49.25;;;28.27;;
28007;SDS011;15333;50.010;20.020;2023-04-08T10:04:26;47.08;;;24.10;;
28007;SDS011;15333;50.010;20.020;2023-04-08T10:07:28;52.03;;;28.35;;
28007;SDS011;15333;50.010;20.020;2023-04-08T10:10:29;54.13;;;27.77;;
28007;SDS011;15333;50.010;20.020;2023-04-08T10:13:31;50.78;;;27.23;;
28007;SDS011;15333;50.010;20.020;2023-04-08T10:16:33;43.08;;;24.88;;
28007;SDS011;15333;50.010;20.020;2023-04-08T10:19:37;51.90;;;28.75;;
28007;SDS011;15333;50.010;20.020;2023-04-08T10:22:44;54.17;;;29.50;;
28007;SDS011;15333;50.010;20.020;2023-04-08T10:25:47;51.38;;;28.67;;
28007;SDS011;15333;50.010;20.020;2023-04-08T10:28:48;54.47;;;30.40;;
28007;SDS011;15333;50.010;20.020;2023-04-08T10:31:50;57.20;;;31.40;;
28007;SDS011;15333;50.010;20.020;2023-04-08T10:34:51;47.53;;;26.92;;
28007;SDS011;15333;50.010;20.020;2023-04-08T10:37:53;49.78;;;27.45;;
28007;SDS011;15333;50.010;20.020;2023-04-08T10:40:55;52.50;;;28.10;;
28007;SDS011;15333;50.010;20.020;2023-04-08T10:43:56;53.70;;;29.95;;
28007;SDS011;15333;50.010;20.020;2023-04-08T10:46:57;52.38;;;27.17;;
28007;SDS011;15333;50.010;20.020;2023-04-08T10:49:58;53.47;;;29.08;;
28007;SDS011;15333;50.010;20.020;2023-04-08T10:52:58;89.57;;;44.05;;
28007;SDS011;15333;50.010;20.020;2023-04-08T10:56:04;58.50;;;31.08;;
28007;SDS011;15333;50.010;20.020;2023-04-08T10:59:06;60.67;;;31.75;;
28007;SDS011;15333;50.010;20.020;2023-04-08T11:02:12;59.53;;;33.47;;
28007;SDS011;15333;50.010;20.020;2023-04-08T11:05:13;56.95;;;29.15;;
28007;SDS011;15333;50.010;20.020;2023-04-08T11:08:15;55.92;;;30.50;;
28007;SDS011;15333;50.010;20.020;2023-04-08T11:11:19;52.53;;;26.33;;
28007;SDS011;15333;50.010;20.020;2023-04-08T11:14:21;56.65;;;30.83;;
28007;SDS011;15333;50.010;20.020;2023-04-08T11:17:23;55.80;;;31.75;;
28007;SDS011;15333;50.010;20.020;2023-04-08T11:20:24;52.35;;;28.77;;
28007;SDS011;15333;50.010;20.020;2023-04-08T11:23:25;53.78;;;30.42;;
28007;SDS011;15333;50.010;20.020;2023-04-08T11:26:26;65.53;;;33.63;;
28007;SDS011;15333;50.010;20.020;2023-04-08T11:29:27;51.88;;;28.20;;
28007;SDS011;15333;50.010;20.020;2023-04-08T11:32:29;51.58;;;26.67;;
28007;SDS011;15333;50.010;20.020;2023-04-08T11:35:30;52.50;;;26.95;;
28007;SDS011;15333;50.010;20.020;2023-04-08T11:38:33;52.53;;;28.67;;
28007;SDS011;15333;50.010;20.020;2023-04-08T11:41:39;63.85;;;32.47;;
28007;SDS011;15333;50.010;20.020;2023-04-08T11:44:40;60.55;;;32.42;;
28007;SDS011;15333;50.010;20.020;2023-04-08T11:47:41;58.00;;;32.22;;
28007;SDS011;15333;50.010;20.020;2023-04-08T11:50:43;58.63;;;30.00;;
28007;SDS011;15333;50.010;20.020;2023-04-08T11:53:44;62.47;;;33.65;;
28007;SDS011;15333;50.010;20.020;2023-04-08T11:56:48;64.30;;;34.70;;
28007;SDS011;15333;50.010;20.020;2023-04-08T11:59:50;64.38;;;35.00;;
28007;SDS011;15333;50.010;20.020;2023-04-08T12:02:51;64.22;;;33.88;;
28007;SDS011;15333;50.010;20.020;2023-04-08T12:05:52;64.25;;;34.65;;
28007;SDS011;15333;50.010;20.020;2023-04-08T12:08:54;59.08;;;32.42;;
28007;SDS011;15333;50.010;20.020;2023-04-08T12:11:55;61.28;;;32.85;;
28007;SDS011;15333;50.010;20.020;2023-04-08T12:14:57;68.28;;;34.03;;
28007;SDS011;15333;50.010;20.020;2023-04-08T12:17:58;72.65;;;40.22;;
28007;SDS011;15333;50.010;20.020;2023-04-08T12:20:59;67.53;;;36.13;;
28007;SDS011;15333;50.010;20.020;2023-04-08T12:24:00;63.28;;;33.17;;
28007;SDS011;15333;50.010;20.020;2023-04-08T12:27:01;61.33;;;34.33;;
28007;SDS011;15333;50.010;20.020;2023-04-08T12:30:04;52.13;;;28.00;;
28007;SDS011;15333;50.010;20.020;2023-04-08T12:33:05;50.15;;;26.15;;
28007;SDS011;15333;50.010;20.020;2023-04-08T12:36:06;46.67;;;26.02;;
28007;SDS011;15333;50.010;20.020;2023-04-08T12:39:07;45.58;;;23.65;;
28007;SDS011;15333;50.010;20.020;2023-04-08T12:42:08;45.92;;;26.00;;
28007;SDS011;15333;50.010;20.020;2023-04-08T12:45:09;46.95;;;26.45;;
28007;SDS011;15333;50.010;20.020;2023-04-08T12:48:10;42.78;;;22.30;;
28007;SDS011;15333;50.010;20.020;2023-04-08T12:51:11;49.90;;;27.08;;
28007;SDS011;15333;50.010;20.020;2023-04-08T12:54:12;48.00;;;25.40;;
28007;SDS011;15333;50.010;20.020;2023-04-08T12:57:13;49.63;;;26.52;;
28007;SDS011;15333;50.010;20.020;2023-04-08T13:00:14;49.50;;;26.75;;
28007;SDS011;15333;50.010;20.020;2023-04-08T13:03:15;48.35;;;26.80;;
28007;SDS011;15333;50.010;20.020;2023-04-08T13:06:17;53.95;;;29.02;;
28007;SDS011;15333;50.010;20.020;2023-04-08T13:09:18;49.75;;;28.02;;
28007;SDS011;15333;50.010;20.020;2023-04-08T13:12:18;47.45;;;27.40;;
28007;SDS011;15333;50.010;20.020;2023-04-08T13:15:20;47.40;;;25.30;;
28007;SDS011;15333;50.010;20.020;2023-04-08T13:18:21;50.28;;;27.20;;
28007;SDS011;15333;50.010;20.020;2023-04-08T13:21:22;48.80;;;27.33;;
28007;SDS011;15333;50.010;20.020;2023-04-08T13:24:23;51.00;;;26.05;;
28007;SDS011;15333;50.010;20.020;2023-04-08T13:27:24;48.78;;;26.08;;
28007;SDS011;15333;50.010;20.020;2023-04-08T13:30:25;49.92;;;28.30;;
28007;SDS011;15333;50.010;20.020;2023-04-08T13:33:26;60.83;;;29.08;;
28007;SDS011;15333;50.010;20.020;2023-04-08T13:36:26;46.60;;;26.40;;
28007;SDS011;15333;50.010;20.020;2023-04-08T13:39:31;46.25;;;24.08;;
28007;SDS011;15333;50.010;20.020;2023-04-08T13:42:31;48.22;;;26.55;;
28007;SDS011;15333;50.010;20.020;2023-04-08T13:45:32;44.95;;;25.85;;
28007;SDS011;15333;50.010;20.020;2023-04-08T13:48:33;43.55;;;24.67;;
28007;SDS011;15333;50.010;20.020;2023-04-08T13:51:34;45.03;;;27.02;;
28007;SDS011;15333;50.010;20.020;2023-04-08T13:54:35;45.22;;;25.60;;
28007;SDS011;15333;50.010;20.020;2023-04-08T13:57:36;46.28;;;27.08;;
28007;SDS011;15333;50.010;20.020;2023-04-08T14:00:37;43.63;;;26.05;;
28007;SDS011;15333;50.010;20.020;2023-04-08T14:03:38;46.33;;;26.45;;
28007;SDS011;15333;50.010;20.020;2023-04-08T14:06:39;49.70;;;28.23;;
28007;SDS011;15333;50.010;20.020;2023-04-08T14:09:40;49.17;;;27.63;;
28007;SDS011;15333;50.010;20.020;2023-04-08T14:12:41;52.03;;;28.00;;
28007;SDS011;15333;50.010;20.020;2023-04-08T14:15:42;49.75;;;28.58;;
28007;SDS011;15333;50.010;20.020;2023-04-08T14:18:43;44.80;;;27.63;;
28007;SDS011;15333;50.010;20.020;2023-04-08T14:21:44;46.08;;;26.55;;
28007;SDS011;15333;50.010;20.020;2023-04-08T14:24:45;43.55;;;26.13;;
28007;SDS011;15333;50.010;20.020;2023-04-08T14:27:46;44.47;;;25.75;;
28007;SDS011;15333;50.010;20.020;2023-04-08T14:30:47;50.08;;;27.40;;
28007;SDS011;15333;50.010;20.020;2023-04-08T14:33:48;44.42;;;26.30;;
28007;SDS011;15333;50.010;20.020;2023-04-08T14:36:49;47.72;;;28.45;;
28007;SDS011;15333;50.010;20.020;2023-04-08T14:39:50;47.72;;;29.92;;
28007;SDS011;15333;50.010;20.020;2023-04-08T14:42:50;48.58;;;29.13;;
28007;SDS011;15333;50.010;20.020;2023-04-08T14:45:51;51.67;;;30.40;;
28007;SDS011;15333;50.010;20.020;2023-04-08T14:48:52;55.13;;;30.23;;
28007;SDS011;15333;50.010;20.020;2023-04-08T14:51:53;48.95;;;29.60;;
28007;SDS011;15333;50.010;20.020;2023-04-08T14:54:54;55.67;;;30.48;;
28007;SDS011;15333;50.010;20.020;2023-04-08T14:57:55;56.03;;;31.45;;
28007;SDS011;15333;50.010;20.020;2023-04-08T15:00:56;56.30;;;30.67;;
28007;SDS011;15333;50.010;20.020;2023-04-08T15:03:57;47.83;;;27.80;;
28007;SDS011;15333;50.010;20.020;2023-04-08T15:06:58;49.08;;;28.65;;
28007;SDS011;15333;50.010;20.020;2023-04-08T15:09:59;43.80;;;25.42;;
28007;SDS011;15333;50.010;20.020;2023-04-08T15:13:00;45.92;;;26.15;;
28007;SDS011;15333;50.010;20.020;2023-04-08T15:16:01;45.83;;;27.35;;
28007;SDS011;15333;50.010;20.020;2023-04-08T15:19:01;45.97;;;26.73;;
28007;SDS011;15333;50.010;20.020;2023-04-08T15:22:04;45.80;;;27.67;;
28007;SDS011;15333;50.010;20.020;2023-04-08T15:25:05;50.03;;;28.10;;
28007;SDS011;15333;50.010;20.020;2023-04-08T15:28:06;43.97;;;26.63;;
28007;SDS011;15333;50.010;20.020;2023-04-08T15:31:07;42.80;;;24.80;;
28007;SDS011;15333;50.010;20.020;2023-04-08T15:34:08;47.35;;;27.60;;
28007;SDS011;15333;50.010;20.020;2023-04-08T15:37:09;44.55;;;26.40;;
28007;SDS011;15333;50.010;20.020;2023-04-08T15:40:11;49.67;;;28.67;;
28007;SDS011;15333;50.010;20.020;2023-04-08T15:43:12;47.53;;;29.33;;
28007;SDS011;15333;50.010;20.020;2023-04-08T15:46:16;60.53;;;33.50;;
28007;SDS011;15333;50.010;20.020;2023-04-08T15:49:18;52.30;;;28.85;;
28007;SDS011;15333;50.010;20.020;2023-04-08T15:52:19;47.95;;;28.98;;
28007;SDS011;15333;50.010;20.020;2023-04-08T15:55:20;53.28;;;30.33;;
28007;SDS011;15333;50.010;20.020;2023-04-08T15:58:21;49.88;;;29.95;;
28007;SDS011;15333;50.010;20.020;2023-04-08T16:01:21;52.85;;;30.02;;
28007;SDS011;15333;50.010;20.020;2023-04-08T16:04:22;46.47;;;28.23;;
28007;SDS011;15333;50.010;20.020;2023-04-08T16:07:23;54.53;;;30.02;;
28007;SDS011;15333;50.010;20.020;2023-04-08T16:10:24;48.10;;;28.98;;
28007;SDS011;15333;50.010;20.020;2023-04-08T16:13:25;50.15;;;29.35;;
28007;SDS011;15333;50.010;20.020;2023-04-08T16:16:28;47.08;;;28.70;;
28007;SDS011;15333;50.010;20.020;2023-04-08T16:19:29;50.50;;;29.58;;
28007;SDS011;15333;50.010;20.020;2023-04-08T16:22:30;55.78;;;30.92;;
28007;SDS011;15333;50.010;20.020;2023-04-08T16:25:31;54.75;;;32.22;;
28007;SDS011;15333;50.010;20.020;2023-04-08T16:28:33;53.45;;;31.10;;
28007;SDS011;15333;50.010;20.020;2023-04-08T16:31:34;54.88;;;31.17;;
28007;SDS011;15333;50.010;20.020;2023-04-08T16:34:35;56.92;;;32.47;;
28007;SDS011;15333;50.010;20.020;2023-04-08T16:37:36;63.30;;;35.17;;
28007;SDS011;15333;50.010;20.020;2023-04-08T16:40:37;56.17;;;32.63;;
28007;SDS011;15333;50.010;20.020;2023-04-08T16:43:38;55.35;;;33.05;;
28007;SDS011;15333;50.010;20.020;2023-04-08T16:46:39;59.83;;;33.10;;
28007;SDS011;15333;50.010;20.020;2023-04-08T16:49:40;54.55;;;31.70;;
28007;SDS011;15333;50.010;20.020;2023-04-08T16:52:41;58.25;;;32.67;;
28007;SDS011;15333;50.010;20.020;2023-04-08T16:55:48;58.45;;;33.55;;
28007;SDS011;15333;50.010;20.020;2023-04-08T16:58:50;56.33;;;33.75;;
28007;SDS011;15333;50.010;20.020;2023-04-08T17:01:50;57.20;;;33.25;;
28007;SDS011;15333;50.010;20.020;2023-04-08T17:04:51;62.35;;;35.13;;
28007;SDS011;15333;50.010;20.020;2023-04-08T17:07:53;61.22;;;33.95;;
28007;SDS011;15333;50.010;20.020;2023-04-08T17:11:03;64.45;;;34.78;;
28007;SDS011;15333;50.010;20.020;2023-04-08T17:14:14;68.20;;;37.78;;
28007;SDS011;15333;50.010;20.020;2023-04-08T17:17:15;60.10;;;34.40;;
28007;SDS011;15333;50.010;20.020;2023-04-08T17:20:15;69.72;;;38.97;;
28007;SDS011;15333;50.010;20.020;2023-04-08T17:23:17;66.60;;;37.58;;
28007;SDS011;15333;50.010;20.020;2023-04-08T17:26:17;66.90;;;37.35;;
28007;SDS011;15333;50.010;20.020;2023-04-08T17:29:19;67.57;;;37.08;;